createdAt,value
2023-12-30T00:00:39.394Z,3.60
2023-12-30T00:03:27.538Z,3.50
2023-12-30T00:05:55.832Z,3.10
2023-12-30T00:08:23.862Z,3.90
2023-12-30T00:10:51.906Z,4.60
2023-12-30T00:13:19.841Z,3.60
2023-12-30T00:15:47.795Z,3.70
2023-12-30T00:18:16.589Z,4.30
2023-12-30T00:20:44.755Z,3.60
2023-12-30T00:23:12.978Z,3.90
2023-12-30T00:25:40.853Z,6.40
2023-12-30T00:28:10.219Z,2.80
2023-12-30T00:30:38.299Z,3.40
2023-12-30T00:33:07.178Z,3.90
2023-12-30T00:35:35.324Z,4.50
2023-12-30T00:38:03.444Z,4.80
2023-12-30T00:40:31.532Z,3.50
2023-12-30T00:42:59.896Z,2.80
2023-12-30T00:45:28.190Z,4.50
2023-12-30T00:47:57.442Z,5.00
2023-12-30T00:50:26.073Z,5.20
2023-12-30T00:52:54.784Z,4.00
2023-12-30T00:55:22.727Z,2.10
2023-12-30T00:57:50.845Z,3.80
2023-12-30T01:00:19.481Z,3.40
2023-12-30T01:02:47.372Z,3.10
2023-12-30T01:05:15.310Z,3.30
2023-12-30T01:07:43.324Z,2.80
2023-12-30T01:10:11.978Z,3.30
2023-12-30T01:12:40.069Z,2.50
2023-12-30T01:15:09.061Z,2.80
2023-12-30T01:17:37.302Z,2.20
2023-12-30T01:20:08.503Z,3.50
2023-12-30T01:22:38.070Z,4.20
2023-12-30T01:25:07.331Z,4.20
2023-12-30T01:27:36.210Z,3.30
2023-12-30T01:30:05.400Z,4.40
2023-12-30T01:32:33.451Z,4.80
2023-12-30T01:35:01.423Z,3.60
2023-12-30T01:37:29.767Z,6.80
2023-12-30T01:39:57.771Z,3.70
2023-12-30T01:42:25.720Z,5.50
2023-12-30T01:44:53.748Z,4.90
2023-12-30T01:47:21.841Z,4.50
2023-12-30T01:49:50.202Z,3.70
2023-12-30T01:52:19.305Z,6.90
2023-12-30T01:54:47.627Z,3.80
2023-12-30T01:57:16.114Z,4.10
2023-12-30T01:59:46.259Z,3.90
2023-12-30T02:02:14.617Z,4.50
2023-12-30T02:04:43.534Z,3.40
2023-12-30T02:07:12.905Z,3.40
2023-12-30T02:09:40.930Z,3.30
2023-12-30T02:12:10.322Z,3.90
2023-12-30T02:14:38.412Z,3.10
2023-12-30T02:17:06.997Z,2.70
2023-12-30T02:19:35.152Z,3.10
2023-12-30T02:22:03.300Z,4.30
2023-12-30T02:24:31.354Z,4.80
2023-12-30T02:27:00.839Z,3.40
2023-12-30T02:29:28.761Z,3.20
2023-12-30T02:31:56.795Z,4.10
2023-12-30T02:34:24.924Z,3.60
2023-12-30T02:36:53.006Z,3.00
2023-12-30T02:39:20.932Z,3.60
2023-12-30T02:41:48.960Z,3.90
2023-12-30T02:44:20.410Z,2.90
2023-12-30T02:46:48.577Z,4.10
2023-12-30T02:49:16.864Z,3.20
2023-12-30T02:51:45.147Z,4.60
2023-12-30T02:54:13.674Z,4.80
2023-12-30T02:56:42.698Z,4.50
2023-12-30T02:59:10.638Z,2.40
2023-12-30T03:01:39.692Z,3.20
2023-12-30T03:04:08.205Z,2.60
2023-12-30T03:06:36.819Z,3.50
2023-12-30T03:09:05.047Z,3.20
2023-12-30T03:11:33.097Z,2.70
2023-12-30T03:14:01.329Z,6.30
2023-12-30T03:16:29.641Z,4.00
2023-12-30T03:18:57.911Z,3.10
2023-12-30T03:21:26.512Z,4.80
2023-12-30T03:23:54.878Z,3.60
2023-12-30T03:26:22.823Z,3.00
2023-12-30T03:28:50.829Z,2.50
2023-12-30T03:31:22.738Z,4.10
2023-12-30T03:33:51.612Z,2.60
2023-12-30T03:36:19.811Z,2.20
2023-12-30T03:38:50.118Z,3.70
2023-12-30T03:41:18.913Z,3.10
2023-12-30T03:43:47.114Z,3.40
2023-12-30T03:46:15.417Z,3.40
2023-12-30T03:48:43.701Z,1.10
2023-12-30T03:51:11.855Z,1.40
2023-12-30T03:53:39.979Z,2.30
2023-12-30T03:56:08.102Z,3.40
2023-12-30T03:58:36.251Z,2.60
2023-12-30T04:01:05.010Z,2.60
2023-12-30T04:03:33.143Z,2.40
2023-12-30T04:06:01.178Z,2.80
2023-12-30T04:08:29.313Z,3.00
2023-12-30T04:10:57.349Z,2.20
2023-12-30T04:13:25.380Z,3.50
2023-12-30T04:15:53.452Z,3.50
2023-12-30T04:18:21.771Z,3.00
2023-12-30T04:20:50.395Z,3.70
2023-12-30T04:23:18.641Z,1.40
2023-12-30T04:25:46.754Z,2.50
2023-12-30T04:28:14.861Z,0.80
2023-12-30T04:30:43.660Z,2.70
2023-12-30T04:33:11.825Z,2.00
2023-12-30T04:35:42.536Z,1.80
2023-12-30T04:38:10.528Z,5.10
2023-12-30T04:40:38.587Z,0.70
2023-12-30T04:43:06.789Z,2.40
2023-12-30T04:45:34.873Z,1.90
2023-12-30T04:48:03.148Z,1.50
2023-12-30T04:50:31.510Z,0.90
2023-12-30T04:52:59.777Z,1.40
2023-12-30T04:55:28.218Z,1.40
2023-12-30T04:57:56.250Z,1.80
2023-12-30T05:00:24.498Z,1.90
2023-12-30T05:02:52.783Z,0.90
2023-12-30T05:05:21.296Z,1.80
2023-12-30T05:07:49.282Z,1.80
2023-12-30T05:10:17.280Z,1.10
2023-12-30T05:12:45.343Z,1.90
2023-12-30T05:15:16.173Z,0.90
2023-12-30T05:17:45.525Z,2.10
2023-12-30T05:20:14.134Z,0.80
2023-12-30T05:22:42.333Z,0.90
2023-12-30T05:25:10.888Z,0.90
2023-12-30T05:27:39.649Z,1.20
2023-12-30T05:30:09.198Z,1.50
2023-12-30T05:32:37.418Z,2.30
2023-12-30T05:35:06.131Z,2.20
2023-12-30T05:37:34.434Z,1.70
2023-12-30T05:40:07.535Z,1.10
2023-12-30T05:42:35.985Z,2.10
2023-12-30T05:45:05.079Z,2.10
2023-12-30T05:47:33.234Z,0.90
2023-12-30T05:50:01.310Z,2.50
2023-12-30T05:52:30.053Z,3.70
2023-12-30T05:54:58.356Z,2.60
2023-12-30T05:57:26.580Z,2.60
2023-12-30T05:59:54.522Z,3.10
2023-12-30T06:02:23.629Z,3.10
2023-12-30T06:04:51.727Z,2.40
2023-12-30T06:07:19.821Z,2.60
2023-12-30T06:09:47.829Z,2.00
2023-12-30T06:12:15.814Z,2.40
2023-12-30T06:14:43.803Z,2.30
2023-12-30T06:17:11.785Z,2.40
2023-12-30T06:19:39.860Z,3.80
2023-12-30T06:22:08.164Z,1.90
2023-12-30T06:24:36.246Z,1.70
2023-12-30T06:27:04.539Z,2.50
2023-12-30T06:29:33.483Z,3.50
2023-12-30T06:32:01.780Z,3.00
2023-12-30T06:34:29.878Z,2.30
2023-12-30T06:36:58.073Z,1.10
2023-12-30T06:39:26.134Z,4.00
2023-12-30T06:41:54.570Z,2.90
2023-12-30T06:44:23.254Z,2.20
2023-12-30T06:46:51.489Z,2.70
2023-12-30T06:49:19.864Z,1.80
2023-12-30T06:51:48.090Z,2.20
2023-12-30T06:54:16.364Z,1.80
2023-12-30T06:56:45.450Z,5.00
2023-12-30T06:59:15.539Z,3.20
2023-12-30T07:01:43.863Z,2.30
2023-12-30T07:04:12.044Z,3.30
2023-12-30T07:06:40.134Z,1.00
2023-12-30T07:09:08.419Z,2.50
2023-12-30T07:11:36.719Z,1.00
2023-12-30T07:14:04.673Z,2.20
2023-12-30T07:16:32.647Z,3.50
2023-12-30T07:19:00.854Z,2.70
2023-12-30T07:21:28.901Z,2.40
2023-12-30T07:23:56.845Z,4.40
2023-12-30T07:26:24.861Z,4.40
2023-12-30T07:28:52.919Z,4.10
2023-12-30T07:31:20.961Z,4.00
2023-12-30T07:33:49.097Z,3.50
2023-12-30T07:36:17.230Z,1.20
2023-12-30T07:38:45.211Z,3.30
2023-12-30T07:41:15.846Z,2.80
2023-12-30T07:43:44.113Z,2.80
2023-12-30T07:46:12.490Z,4.60
2023-12-30T07:48:40.815Z,6.10
2023-12-30T07:51:09.412Z,4.80
2023-12-30T07:53:37.502Z,5.70
2023-12-30T07:56:06.073Z,5.40
2023-12-30T07:58:34.320Z,3.90
2023-12-30T08:01:02.630Z,5.00
2023-12-30T08:03:30.846Z,5.10
2023-12-30T08:05:58.849Z,6.70
2023-12-30T08:08:26.821Z,4.80
2023-12-30T08:10:54.860Z,5.80
2023-12-30T08:13:22.990Z,4.50
2023-12-30T08:15:51.224Z,6.40
2023-12-30T08:18:19.231Z,3.20
2023-12-30T08:20:50.622Z,5.70
2023-12-30T08:23:18.797Z,5.80
2023-12-30T08:25:46.804Z,3.10
2023-12-30T08:28:15.266Z,3.30
2023-12-30T08:30:43.340Z,3.20
2023-12-30T08:33:11.509Z,4.10
2023-12-30T08:35:39.589Z,4.40
2023-12-30T08:38:07.635Z,3.50
2023-12-30T08:40:37.396Z,3.90
2023-12-30T08:43:06.367Z,3.30
2023-12-30T08:45:36.141Z,3.60
2023-12-30T08:48:06.127Z,3.70
2023-12-30T08:50:34.390Z,6.80
2023-12-30T08:53:02.664Z,5.30
2023-12-30T08:55:30.985Z,6.50
2023-12-30T08:57:59.596Z,4.90
2023-12-30T09:00:27.836Z,5.90
2023-12-30T09:02:57.084Z,3.60
2023-12-30T09:05:25.424Z,4.60
2023-12-30T09:07:53.522Z,4.60
2023-12-30T09:10:21.795Z,2.70
2023-12-30T09:12:50.082Z,3.10
2023-12-30T09:15:18.230Z,4.80
2023-12-30T09:17:46.793Z,4.10
2023-12-30T09:20:15.331Z,3.90
2023-12-30T09:22:43.636Z,4.20
2023-12-30T09:25:11.576Z,5.90
2023-12-30T09:27:39.468Z,7.60
2023-12-30T09:30:09.501Z,7.60
2023-12-30T09:32:38.082Z,5.80
2023-12-30T09:35:07.107Z,7.70
2023-12-30T09:37:35.211Z,7.40
2023-12-30T09:40:04.142Z,5.10
2023-12-30T09:42:32.398Z,5.90
2023-12-30T09:45:01.453Z,5.40
2023-12-30T09:47:30.887Z,5.80
2023-12-30T09:49:59.335Z,6.10
2023-12-30T09:52:27.582Z,7.40
2023-12-30T09:54:55.745Z,5.20
2023-12-30T09:57:24.141Z,3.30
2023-12-30T09:59:53.410Z,5.00
2023-12-30T10:02:21.783Z,6.70
2023-12-30T10:04:51.142Z,5.50
2023-12-30T10:07:20.518Z,8.90
2023-12-30T10:09:51.637Z,5.60
2023-12-30T10:12:20.116Z,2.70
2023-12-30T10:14:48.864Z,6.10
2023-12-30T10:17:17.457Z,7.10
2023-12-30T10:19:46.755Z,7.00
2023-12-30T10:22:14.756Z,6.50
2023-12-30T10:24:43.474Z,8.90
2023-12-30T10:27:11.912Z,7.60
2023-12-30T10:29:47.275Z,5.80
2023-12-30T10:32:22.833Z,5.90
2023-12-30T10:34:51.349Z,5.70
2023-12-30T10:37:21.721Z,7.40
2023-12-30T10:39:50.094Z,4.80
2023-12-30T10:42:18.220Z,5.70
2023-12-30T10:44:46.282Z,7.20
2023-12-30T10:47:17.086Z,6.60
2023-12-30T10:49:53.161Z,3.90
2023-12-30T10:52:28.052Z,5.60
2023-12-30T10:55:10.726Z,4.80
2023-12-30T10:57:46.167Z,4.10
2023-12-30T11:00:18.338Z,7.20
2023-12-30T11:02:48.024Z,8.50
2023-12-30T11:05:28.442Z,9.10
2023-12-30T11:07:57.566Z,6.80
2023-12-30T11:10:27.821Z,7.30
2023-12-30T11:12:55.924Z,5.80
2023-12-30T11:15:32.183Z,7.80
2023-12-30T11:18:01.185Z,7.10
2023-12-30T11:20:34.362Z,9.90
2023-12-30T11:23:05.644Z,7.00
2023-12-30T11:25:46.112Z,6.50
2023-12-30T11:28:23.480Z,6.80
2023-12-30T11:31:02.352Z,8.30
2023-12-30T11:33:30.645Z,10.00
2023-12-30T11:36:00.923Z,7.20
2023-12-30T11:38:32.547Z,9.80
2023-12-30T11:41:02.431Z,4.10
2023-12-30T11:43:31.291Z,9.00
2023-12-30T11:46:01.288Z,7.10
2023-12-30T11:48:30.646Z,7.70
2023-12-30T11:50:58.786Z,6.30
2023-12-30T11:53:27.261Z,10.40
2023-12-30T11:55:55.609Z,9.10
2023-12-30T11:58:23.665Z,9.40
2023-12-30T12:00:51.826Z,12.30
2023-12-30T12:03:20.035Z,9.00
2023-12-30T12:05:50.146Z,6.10
2023-12-30T12:08:18.419Z,6.30
2023-12-30T12:10:47.665Z,8.10
2023-12-30T12:13:23.028Z,7.50
2023-12-30T12:15:52.561Z,9.10
2023-12-30T12:18:24.016Z,6.60
2023-12-30T12:20:53.479Z,9.00
2023-12-30T12:23:25.826Z,12.80
2023-12-30T12:25:54.014Z,10.30
2023-12-30T12:28:24.208Z,7.10
2023-12-30T12:30:52.731Z,6.90
2023-12-30T12:33:20.938Z,8.40
2023-12-30T12:35:49.398Z,13.30
2023-12-30T12:38:17.547Z,10.40
2023-12-30T12:40:46.721Z,10.10
2023-12-30T12:43:14.848Z,11.70
2023-12-30T12:45:43.013Z,13.40
2023-12-30T12:48:12.442Z,8.20
2023-12-30T12:50:40.580Z,7.80
2023-12-30T12:53:08.561Z,10.00
2023-12-30T12:55:38.051Z,9.40
2023-12-30T12:58:06.265Z,8.90
2023-12-30T13:00:34.395Z,8.20
2023-12-30T13:03:03.233Z,6.50
2023-12-30T13:05:31.502Z,12.60
2023-12-30T13:07:59.637Z,9.00
2023-12-30T13:10:34.248Z,9.90
2023-12-30T13:13:03.256Z,9.60
2023-12-30T13:15:31.785Z,10.20
2023-12-30T13:18:00.922Z,10.40
2023-12-30T13:20:29.482Z,10.20
2023-12-30T13:22:58.624Z,11.60
2023-12-30T13:25:31.104Z,10.10
2023-12-30T13:27:59.828Z,10.40
2023-12-30T13:30:29.313Z,9.90
2023-12-30T13:32:59.115Z,9.90
2023-12-30T13:35:31.831Z,13.40
2023-12-30T13:37:59.743Z,12.20
2023-12-30T13:40:28.454Z,8.70
2023-12-30T13:43:01.518Z,29.10
2023-12-30T13:45:34.152Z,15.60
2023-12-30T13:48:08.486Z,10.80
2023-12-30T13:50:53.579Z,9.10
2023-12-30T13:53:25.549Z,10.80
2023-12-30T13:55:56.492Z,10.50
2023-12-30T13:58:24.671Z,7.70
2023-12-30T14:00:52.875Z,12.70
2023-12-30T14:03:21.481Z,9.70
2023-12-30T14:05:50.111Z,12.70
2023-12-30T14:08:22.159Z,12.90
2023-12-30T14:10:51.487Z,12.50
2023-12-30T14:13:20.981Z,11.20
2023-12-30T14:15:50.376Z,8.70
2023-12-30T14:18:19.161Z,10.60
2023-12-30T14:20:48.315Z,10.80
2023-12-30T14:23:16.506Z,13.20
2023-12-30T14:25:47.706Z,7.30
2023-12-30T14:28:16.072Z,10.20
2023-12-30T14:30:45.829Z,10.60
2023-12-30T14:33:14.589Z,11.20
2023-12-30T14:35:43.026Z,11.70
2023-12-30T14:38:11.230Z,9.80
2023-12-30T14:40:39.261Z,9.80
2023-12-30T14:43:07.515Z,8.30
2023-12-30T14:45:35.793Z,13.40
2023-12-30T14:48:05.387Z,8.50
2023-12-30T14:50:33.637Z,7.40
2023-12-30T14:53:01.907Z,7.80
2023-12-30T14:55:30.303Z,8.50
2023-12-30T14:57:58.583Z,10.60
2023-12-30T15:00:26.762Z,10.20
2023-12-30T15:02:56.118Z,7.30
2023-12-30T15:05:24.370Z,9.60
2023-12-30T15:07:55.885Z,9.10
2023-12-30T15:10:26.555Z,16.50
2023-12-30T15:12:54.819Z,8.90
2023-12-30T15:15:23.857Z,10.70
2023-12-30T15:17:52.432Z,9.80
2023-12-30T15:20:21.110Z,11.30
2023-12-30T15:22:49.411Z,8.90
2023-12-30T15:25:20.076Z,12.20
2023-12-30T15:27:53.921Z,9.40
2023-12-30T15:30:24.214Z,12.60
2023-12-30T15:32:54.047Z,10.30
2023-12-30T15:35:22.480Z,9.40
2023-12-30T15:37:50.759Z,9.40
2023-12-30T15:40:19.931Z,10.10
2023-12-30T15:42:48.131Z,14.20
2023-12-30T15:45:16.431Z,13.40
2023-12-30T15:47:45.322Z,12.00
2023-12-30T15:50:15.128Z,11.30
2023-12-30T15:52:43.308Z,9.90
2023-12-30T15:55:11.773Z,15.10
2023-12-30T15:57:39.855Z,10.60
2023-12-30T16:00:10.369Z,13.00
2023-12-30T16:02:38.513Z,23.30
2023-12-30T16:05:07.270Z,59.70
2023-12-30T16:07:35.401Z,32.90
2023-12-30T16:10:05.634Z,21.30
2023-12-30T16:12:33.969Z,20.20
2023-12-30T16:15:02.609Z,24.00
2023-12-30T16:17:31.290Z,19.80
2023-12-30T16:20:00.494Z,21.90
2023-12-30T16:22:29.081Z,20.30
2023-12-30T16:24:57.112Z,19.80
2023-12-30T16:27:25.187Z,39.60
2023-12-30T16:29:53.332Z,29.00
2023-12-30T16:32:21.605Z,21.00
2023-12-30T16:34:49.749Z,18.30
2023-12-30T16:37:18.123Z,36.50
2023-12-30T16:39:50.100Z,33.60
2023-12-30T16:42:20.863Z,34.10
2023-12-30T16:44:48.925Z,23.10
2023-12-30T16:47:17.092Z,18.10
2023-12-30T16:49:45.143Z,13.20
2023-12-30T16:52:13.753Z,12.50
2023-12-30T16:54:41.909Z,14.40
2023-12-30T16:57:10.810Z,16.20
2023-12-30T16:59:39.391Z,12.10
2023-12-30T17:02:07.878Z,13.20
2023-12-30T17:04:36.107Z,13.70
2023-12-30T17:07:04.872Z,12.70
2023-12-30T17:09:32.950Z,18.70
2023-12-30T17:12:01.348Z,24.60
2023-12-30T17:14:29.613Z,31.80
2023-12-30T17:16:57.627Z,37.70
2023-12-30T17:19:25.715Z,48.00
2023-12-30T17:21:53.975Z,40.60
2023-12-30T17:24:22.108Z,28.30
2023-12-30T17:26:50.092Z,20.30
2023-12-30T17:29:18.416Z,24.50
2023-12-30T17:31:46.530Z,26.20
2023-12-30T17:34:14.668Z,36.90
2023-12-30T17:36:42.765Z,68.80
2023-12-30T17:39:10.950Z,56.40
2023-12-30T17:41:38.997Z,56.50
2023-12-30T17:44:07.528Z,40.80
2023-12-30T17:46:35.603Z,40.60
2023-12-30T17:49:03.907Z,36.30
2023-12-30T17:51:32.116Z,35.60
2023-12-30T17:54:00.263Z,42.90
2023-12-30T17:56:30.304Z,32.40
2023-12-30T17:58:58.400Z,36.70
2023-12-30T18:01:26.808Z,39.40
2023-12-30T18:03:55.062Z,31.00
2023-12-30T18:06:23.554Z,39.10
2023-12-30T18:08:51.595Z,44.30
2023-12-30T18:11:20.189Z,38.60
2023-12-30T18:13:48.171Z,41.80
2023-12-30T18:16:16.338Z,33.90
2023-12-30T18:18:44.478Z,29.10
2023-12-30T18:21:12.412Z,26.20
2023-12-30T18:23:40.429Z,26.20
2023-12-30T18:26:14.396Z,32.60
2023-12-30T18:28:42.540Z,32.30
2023-12-30T18:31:12.074Z,38.70
2023-12-30T18:33:40.351Z,30.70
2023-12-30T18:36:08.601Z,32.20
2023-12-30T18:38:36.583Z,26.70
2023-12-30T18:41:04.822Z,27.20
2023-12-30T18:43:32.999Z,31.60
2023-12-30T18:46:02.526Z,35.40
2023-12-30T18:48:30.827Z,28.80
2023-12-30T18:50:59.064Z,26.30
2023-12-30T18:53:27.239Z,34.70
2023-12-30T18:55:55.441Z,24.70
2023-12-30T18:58:23.539Z,16.60
2023-12-30T19:00:52.785Z,16.90
2023-12-30T19:03:20.996Z,21.50
2023-12-30T19:05:49.422Z,20.00
2023-12-30T19:08:17.655Z,24.00
2023-12-30T19:10:45.728Z,25.40
2023-12-30T19:13:15.749Z,23.80
2023-12-30T19:15:43.778Z,21.40
2023-12-30T19:18:11.915Z,20.70
2023-12-30T19:20:40.299Z,25.50
2023-12-30T19:23:08.682Z,25.80
2023-12-30T19:25:36.696Z,23.90
2023-12-30T19:28:05.882Z,23.80
2023-12-30T19:30:34.312Z,23.00
2023-12-30T19:33:05.315Z,26.50
2023-12-30T19:35:34.464Z,22.90
2023-12-30T19:38:02.984Z,33.60
2023-12-30T19:40:31.074Z,35.50
2023-12-30T19:42:59.204Z,30.00
2023-12-30T19:45:27.445Z,26.10
2023-12-30T19:47:55.498Z,27.40
2023-12-30T19:50:23.645Z,34.70
2023-12-30T19:52:52.152Z,48.50
2023-12-30T19:55:20.187Z,48.50
2023-12-30T19:57:48.269Z,45.90
2023-12-30T20:00:17.317Z,42.20
2023-12-30T20:02:45.828Z,45.70
2023-12-30T20:05:14.707Z,31.10
2023-12-30T20:07:43.369Z,37.20
2023-12-30T20:10:12.820Z,31.70
2023-12-30T20:12:41.399Z,33.40
2023-12-30T20:15:09.705Z,34.50
2023-12-30T20:17:38.209Z,30.20
2023-12-30T20:20:08.621Z,30.50
2023-12-30T20:22:37.332Z,31.20
2023-12-30T20:25:06.980Z,24.40
2023-12-30T20:27:35.260Z,29.80
2023-12-30T20:30:06.011Z,33.50
2023-12-30T20:32:36.957Z,35.70
2023-12-30T20:35:08.797Z,46.60
2023-12-30T20:37:36.931Z,53.50
2023-12-30T20:40:11.302Z,53.30
2023-12-30T20:42:40.120Z,57.50
2023-12-30T20:45:08.347Z,63.90
2023-12-30T20:47:36.424Z,56.00
2023-12-30T20:50:06.122Z,49.10
2023-12-30T20:52:35.640Z,48.00
2023-12-30T20:55:04.578Z,33.90
2023-12-30T20:57:33.963Z,40.20
2023-12-30T21:00:01.954Z,38.20
2023-12-30T21:02:30.343Z,26.10
2023-12-30T21:04:58.903Z,21.50
2023-12-30T21:07:26.911Z,24.20
2023-12-30T21:09:54.974Z,27.50
2023-12-30T21:12:23.045Z,24.60
2023-12-30T21:14:51.138Z,20.70
2023-12-30T21:17:19.324Z,23.30
2023-12-30T21:19:49.615Z,19.10
2023-12-30T21:22:17.782Z,22.80
2023-12-30T21:24:46.557Z,30.20
2023-12-30T21:27:14.678Z,32.10
2023-12-30T21:29:42.942Z,31.50
2023-12-30T21:32:11.362Z,34.50
2023-12-30T21:34:39.412Z,28.30
2023-12-30T21:37:07.434Z,13.40
2023-12-30T21:39:35.431Z,17.20
2023-12-30T21:42:04.169Z,14.30
2023-12-30T21:44:32.339Z,14.30
2023-12-30T21:47:00.445Z,12.90
2023-12-30T21:49:28.521Z,16.50
2023-12-30T21:51:56.660Z,13.30
2023-12-30T21:54:24.726Z,14.40
2023-12-30T21:56:52.669Z,16.10
2023-12-30T21:59:20.590Z,27.20
2023-12-30T22:01:48.591Z,36.00
2023-12-30T22:04:17.480Z,52.40
2023-12-30T22:06:45.585Z,42.90
2023-12-30T22:09:13.658Z,48.80
2023-12-30T22:11:41.920Z,75.20
2023-12-30T22:14:10.095Z,87.00
2023-12-30T22:16:42.228Z,86.20
2023-12-30T22:19:10.447Z,71.70
2023-12-30T22:21:38.491Z,76.10
2023-12-30T22:24:07.387Z,73.80
2023-12-30T22:26:35.364Z,65.90
2023-12-30T22:29:03.325Z,66.20
2023-12-30T22:31:31.297Z,74.40
2023-12-30T22:33:59.581Z,75.10
2023-12-30T22:36:29.385Z,72.30
2023-12-30T22:38:57.487Z,68.90
2023-12-30T22:41:26.588Z,73.60
2023-12-30T22:43:54.878Z,62.50
2023-12-30T22:46:23.079Z,67.90
2023-12-30T22:48:51.107Z,61.60
2023-12-30T22:51:19.192Z,60.50
2023-12-30T22:53:47.625Z,48.60
2023-12-30T22:56:15.883Z,59.70
2023-12-30T22:58:43.941Z,58.10
2023-12-30T23:01:13.304Z,57.20
2023-12-30T23:03:41.344Z,47.20
2023-12-30T23:06:09.539Z,52.40
2023-12-30T23:08:37.612Z,49.20
2023-12-30T23:11:06.013Z,39.90
2023-12-30T23:13:33.961Z,27.70
2023-12-30T23:16:02.021Z,28.50
2023-12-30T23:18:30.157Z,33.50
2023-12-30T23:20:58.397Z,34.80
2023-12-30T23:23:26.441Z,34.60
2023-12-30T23:25:54.507Z,36.40
2023-12-30T23:28:22.557Z,42.40
2023-12-30T23:30:50.737Z,42.40
2023-12-30T23:33:19.000Z,37.20
2023-12-30T23:35:47.079Z,52.60
2023-12-30T23:38:15.115Z,54.20
2023-12-30T23:40:43.057Z,49.60
2023-12-30T23:43:12.002Z,54.90
2023-12-30T23:45:40.061Z,68.80
2023-12-30T23:48:08.192Z,85.90
2023-12-30T23:50:36.255Z,74.20
2023-12-30T23:53:04.759Z,64.50
2023-12-30T23:55:33.027Z,77.00
2023-12-30T23:58:01.343Z,76.10
